Time;durP1;ratioP1;P1;durP2;ratioP2;P2;SDS_P1;SDS_P2;PMS_P1;PMS_P2;Temp;Humidity;BMP_temperature;BMP_pressure;BME280_temperature;BME280_humidity;BME280_pressure;Samples;Min_cycle;Max_cycle;Signal;HPM_P1;HPM_P2
2021/05/25 00:06:27;;;;;;;10.37;5.07;;;;;;;13.60;62.06;98273.98;512670;1101;103116;-41
2021/05/25 00:16:31;;;;;;;11.73;5.53;;;;;;;13.59;62.45;98271.58;512654;1101;103531;-41
2021/05/25 00:26:36;;;;;;;13.90;6.50;;;;;;;13.48;62.96;98263.53;512606;1101;103178;-40
2021/05/25 00:36:40;;;;;;;13.10;6.93;;;;;;;13.28;63.49;98252.02;512581;1101;104259;-42
2021/05/25 00:46:45;;;;;;;9.50;6.35;;;;;;;13.26;63.79;98231.04;512340;1101;103168;-41
2021/05/25 00:56:49;;;;;;;9.83;6.60;;;;;;;13.27;64.45;98245.11;512616;1101;103178;-41
2021/05/25 01:06:53;;;;;;;10.57;6.33;;;;;;;13.11;65.48;98233.55;512493;1101;103924;-42
2021/05/25 01:16:57;;;;;;;12.37;5.90;;;;;;;12.95;66.19;98207.95;512460;1101;103532;-41
2021/05/25 01:27:02;;;;;;;11.33;6.67;;;;;;;12.84;66.58;98193.83;512717;1101;104527;-42
2021/05/25 01:37:10;;;;;;;9.63;6.07;;;;;;;12.82;67.37;98175.52;512475;1101;103288;-40
2021/05/25 01:47:16;;;;;;;9.90;5.20;;;;;;;12.86;68.44;98162.53;512562;1096;103164;-41
2021/05/25 01:57:24;;;;;;;9.73;5.63;;;;;;;13.07;67.46;98153.64;513674;1083;103282;-41
2021/05/25 02:07:28;;;;;;;13.70;6.40;;;;;;;13.14;66.59;98145.44;512534;1101;103166;-41
2021/05/25 02:17:36;;;;;;;9.33;6.10;;;;;;;13.26;66.75;98135.45;512637;1101;103170;-42
2021/05/25 02:27:41;;;;;;;7.93;6.00;;;;;;;13.30;66.64;98147.16;512725;1097;104509;-42
2021/05/25 02:37:45;;;;;;;12.07;6.73;;;;;;;12.98;66.68;98157.02;512510;1096;103192;-42
2021/05/25 02:47:49;;;;;;;17.87;6.97;;;;;;;12.78;67.12;98161.16;512706;1101;103233;-42
2021/05/25 02:57:55;;;;;;;13.27;7.40;;;;;;;12.73;67.64;98177.02;512492;1101;103366;-41
2021/05/25 03:08:00;;;;;;;7.77;5.70;;;;;;;12.62;67.85;98169.25;512482;1101;103102;-41
2021/05/25 03:18:04;;;;;;;10.93;6.67;;;;;;;12.45;68.56;98166.72;512510;1101;103480;-40
2021/05/25 03:28:10;;;;;;;10.73;7.77;;;;;;;12.23;69.94;98177.40;512762;1101;103438;-41
2021/05/25 03:38:14;;;;;;;15.73;8.87;;;;;;;12.26;70.00;98195.45;512751;1095;103261;-42
2021/05/25 03:48:19;;;;;;;17.27;7.77;;;;;;;12.12;71.19;98200.37;512553;1097;103112;-41
2021/05/25 04:08:46;;;;;;;15.23;8.37;;;;;;;12.48;71.02;98200.69;512735;1101;103524;-42
2021/05/25 04:18:50;;;;;;;12.33;7.33;;;;;;;12.36;71.13;98192.11;512816;1096;103150;-42
2021/05/25 04:28:55;;;;;;;10.30;5.93;;;;;;;12.22;71.65;98191.70;512533;1101;103249;-40
2021/05/25 04:38:59;;;;;;;13.40;7.17;;;;;;;12.18;72.10;98187.95;512669;1101;103671;-41
2021/05/25 04:49:02;;;;;;;13.37;7.67;;;;;;;12.29;72.24;98200.24;512488;1101;103198;-42
2021/05/25 04:59:07;;;;;;;14.10;8.53;;;;;;;12.49;72.21;98202.28;512505;1101;104645;-42
2021/05/25 05:09:11;;;;;;;11.47;6.63;;;;;;;12.31;72.74;98192.07;512773;1096;103489;-42
2021/05/25 05:19:15;;;;;;;9.33;7.50;;;;;;;12.31;73.33;98202.67;512620;1096;103219;-41
2021/05/25 05:29:19;;;;;;;10.77;6.83;;;;;;;12.40;73.79;98209.11;512679;1101;103103;-41
2021/05/25 05:39:24;;;;;;;15.13;8.40;;;;;;;12.84;73.38;98210.55;512649;1096;103202;-41
2021/05/25 05:49:29;;;;;;;14.90;8.50;;;;;;;13.62;73.12;98220.59;512591;1101;103776;-41
2021/05/25 06:09:54;;;;;;;15.13;8.65;;;;;;;13.34;73.14;98241.16;512414;1101;104676;-41
2021/05/25 06:19:59;;;;;;;13.00;7.25;;;;;;;13.47;73.22;98210.68;512538;1101;103189;-41
2021/05/25 06:30:05;;;;;;;21.53;9.23;;;;;;;13.82;73.22;98215.36;512714;1101;103193;-41
2021/05/25 06:40:11;;;;;;;17.80;6.90;;;;;;;13.99;72.80;98207.19;512465;1101;103185;-42
2021/05/25 06:50:14;;;;;;;9.83;5.97;;;;;;;14.44;72.68;98209.17;512701;1096;103456;-41
2021/05/25 07:00:21;;;;;;;7.57;5.47;;;;;;;14.91;72.78;98205.45;512618;1101;103214;-41
2021/05/25 07:10:25;;;;;;;7.90;5.45;;;;;;;15.92;72.08;98213.17;512877;1101;103166;-41
2021/05/25 07:20:30;;;;;;;5.83;4.03;;;;;;;16.58;70.99;98207.44;512606;1097;103179;-41
2021/05/25 07:40:54;;;;;;;5.43;3.27;;;;;;;16.43;70.23;98222.75;512624;1101;103158;-42
2021/05/25 07:50:58;;;;;;;4.30;3.37;;;;;;;17.56;70.93;98229.53;512633;1096;103547;-42
2021/05/25 08:01:03;;;;;;;8.70;4.03;;;;;;;18.04;69.13;98240.22;512689;1101;103253;-43
2021/05/25 08:11:12;;;;;;;3.67;2.87;;;;;;;18.30;68.15;98236.11;512754;1101;103231;-41
2021/05/25 08:21:17;;;;;;;3.23;2.93;;;;;;;18.89;67.53;98255.33;512722;1096;103569;-41
2021/05/25 08:31:22;;;;;;;2.70;2.10;;;;;;;19.35;67.13;98254.55;512632;1101;103160;-40
2021/05/25 08:41:27;;;;;;;4.80;3.03;;;;;;;19.56;65.72;98253.13;512873;1096;103166;-42
2021/05/25 08:51:31;;;;;;;2.45;2.10;;;;;;;19.59;65.41;98263.25;512911;1101;103167;-40
2021/05/25 09:01:37;;;;;;;3.53;2.00;;;;;;;18.70;65.13;98282.16;512824;1101;103173;-39
2021/05/25 09:12:03;;;;;;;3.17;1.90;;;;;;;17.84;64.83;98281.38;512655;1101;103285;-41
2021/05/25 09:22:16;;;;;;;4.40;2.70;;;;;;;16.88;65.27;98291.07;512598;1101;103518;-42
2021/05/25 09:32:21;;;;;;;3.57;2.53;;;;;;;16.43;65.29;98292.92;512597;1101;103237;-41
2021/05/25 09:42:31;;;;;;;4.83;2.03;;;;;;;16.42;65.59;98301.21;512450;1101;103190;-40
2021/05/25 09:52:35;;;;;;;3.07;1.83;;;;;;;16.24;65.83;98307.96;512668;1097;104551;-40
2021/05/25 10:02:40;;;;;;;7.13;2.00;;;;;;;15.69;65.15;98319.63;512785;1094;103169;-41
2021/05/25 10:12:46;;;;;;;5.23;2.03;;;;;;;15.08;65.90;98349.73;512637;1101;103102;-41
2021/05/25 10:22:50;;;;;;;3.90;1.73;;;;;;;13.87;68.67;98388.13;512610;1101;103260;-41
2021/05/25 10:33:22;;;;;;;4.93;1.40;;;;;;;12.47;71.36;98416.53;512558;1097;103110;-40
2021/05/25 10:43:45;;;;;;;5.80;2.23;;;;;;;12.01;71.52;98433.68;512499;1101;103556;-41
2021/05/25 10:54:20;;;;;;;4.43;1.57;;;;;;;11.73;73.14;98429.27;512522;1101;103759;-41
2021/05/25 11:04:36;;;;;;;3.77;2.33;;;;;;;11.75;73.06;98435.13;512449;1101;103452;-40
2021/05/25 11:15:13;;;;;;;5.37;2.90;;;;;;;11.93;73.86;98442.85;512786;1097;104676;-42
2021/05/25 11:25:38;;;;;;;6.17;2.43;;;;;;;12.06;73.40;98436.39;512710;1097;103163;-42
2021/05/25 11:35:42;;;;;;;2.67;2.20;;;;;;;12.34;73.04;98441.58;512761;1097;103215;-40
2021/05/25 11:45:47;;;;;;;3.93;2.40;;;;;;;12.65;72.86;98445.41;512576;1101;103191;-40
2021/05/25 11:55:52;;;;;;;5.60;3.17;;;;;;;12.85;72.11;98461.56;512763;1101;103185;-41
2021/05/25 12:05:58;;;;;;;9.10;6.20;;;;;;;12.76;72.01;98457.73;512715;1096;103562;-42
2021/05/25 12:16:03;;;;;;;11.67;9.00;;;;;;;13.04;71.93;98462.05;512770;1095;103209;-43
2021/05/25 12:37:04;;;;;;;2.90;1.60;;;;;;;13.89;71.03;98433.05;512474;1101;103170;-40
2021/05/25 12:47:13;;;;;;;2.27;1.10;;;;;;;14.23;70.10;98460.13;512820;1097;103195;-42
2021/05/25 12:57:17;;;;;;;;;;;;;;;14.61;69.71;98481.09;512504;1101;103182;-42
2021/05/25 13:07:24;;;;;;;13.97;9.17;;;;;;;14.69;69.49;98464.66;512699;1101;103212;-41
2021/05/25 13:17:30;;;;;;;12.07;7.40;;;;;;;14.52;69.32;98484.52;512785;1101;103201;-40
2021/05/25 13:27:37;;;;;;;7.70;4.37;;;;;;;14.45;68.93;98502.59;512655;1096;103560;-41
2021/05/25 13:37:41;;;;;;;5.27;3.00;;;;;;;14.55;68.91;98521.25;512765;1101;103566;-42
2021/05/25 13:58:05;;;;;;;;;;;;;;;14.96;68.04;98522.26;512615;1101;103531;-41
2021/05/25 14:08:09;;;;;;;7.43;4.23;;;;;;;15.03;67.63;98512.16;512676;1096;103099;-42
2021/05/25 14:18:13;;;;;;;10.97;6.20;;;;;;;14.97;67.15;98497.23;512959;1096;104451;-41
2021/05/25 14:28:19;;;;;;;20.60;10.17;;;;;;;14.84;66.71;98503.02;512769;1101;103103;-41
2021/05/25 14:38:24;;;;;;;6.95;3.35;;;;;;;14.57;66.56;98503.97;512552;1101;103170;-41
2021/05/25 14:48:28;;;;;;;22.20;10.70;;;;;;;14.46;66.47;98515.63;512664;1097;103173;-41
2021/05/25 14:58:33;;;;;;;12.40;5.93;;;;;;;14.31;65.90;98531.45;512832;1101;103458;-41
2021/05/25 15:18:57;;;;;;;17.63;11.07;;;;;;;13.82;65.23;98508.48;512823;1101;103099;-43
2021/05/25 15:29:01;;;;;;;13.00;7.50;;;;;;;13.65;65.14;98497.17;512637;1101;104609;-41
2021/05/25 15:39:04;;;;;;;17.57;10.13;;;;;;;13.54;65.12;98484.06;512611;1095;103537;-42
2021/05/25 15:49:09;;;;;;;7.97;4.13;;;;;;;13.39;64.71;98474.89;512656;1101;103566;-41
2021/05/25 15:59:14;;;;;;;4.43;2.80;;;;;;;13.25;64.50;98471.05;512613;1101;103186;-41
2021/05/25 16:09:18;;;;;;;2.60;2.17;;;;;;;13.18;64.13;98478.39;512601;1101;104781;-44
2021/05/25 16:19:22;;;;;;;6.63;3.10;;;;;;;13.31;63.96;98462.08;512589;1101;103538;-42
2021/05/25 16:29:26;;;;;;;3.17;2.30;;;;;;;13.64;64.26;98489.45;512664;1096;103556;-42
2021/05/25 16:39:33;;;;;;;7.27;4.13;;;;;;;13.79;64.19;98505.55;512699;1097;103166;-43
2021/05/25 16:49:42;;;;;;;10.67;5.63;;;;;;;13.66;63.59;98520.03;512831;1096;103167;-41
2021/05/25 16:59:46;;;;;;;15.07;7.03;;;;;;;13.51;63.68;98533.19;512688;1096;103740;-41
2021/05/25 17:20:14;;;;;;;14.40;6.70;;;;;;;13.29;63.59;98517.30;512922;1101;103286;-42
2021/05/25 17:30:21;;;;;;;7.07;4.43;;;;;;;13.34;63.86;98485.47;512810;1096;103191;-42
2021/05/25 17:40:25;;;;;;;9.63;5.67;;;;;;;13.31;63.87;98485.98;512702;1101;103674;-41
2021/05/25 17:50:33;;;;;;;10.13;6.87;;;;;;;13.27;64.14;98510.63;512833;1101;103165;-42
2021/05/25 18:00:37;;;;;;;12.27;7.33;;;;;;;13.12;64.30;98514.68;512499;1101;103237;-41
2021/05/25 18:10:42;;;;;;;14.50;8.43;;;;;;;13.02;64.14;98521.74;512750;1096;103170;-41
2021/05/25 18:21:00;;;;;;;14.60;8.30;;;;;;;12.83;64.19;98521.24;512651;1101;103187;-41
2021/05/25 18:31:20;;;;;;;20.40;8.80;;;;;;;12.71;64.09;98523.20;512531;1096;103170;-42
2021/05/25 18:51:47;;;;;;;16.30;9.57;;;;;;;12.53;64.91;98511.02;512699;1100;103231;-41
2021/05/25 19:01:57;;;;;;;18.70;11.50;;;;;;;12.29;64.73;98537.73;512808;1101;103455;-42
2021/05/25 19:12:03;;;;;;;18.20;9.57;;;;;;;12.14;64.73;98537.52;512610;1101;103202;-41
2021/05/25 19:32:31;;;;;;;12.70;5.65;;;;;;;11.80;64.60;98580.92;512520;1101;103189;-41
2021/05/25 19:42:39;;;;;;;23.13;10.60;;;;;;;11.47;64.67;98606.26;512579;1100;103165;-41
2021/05/25 20:03:03;;;;;;;20.30;9.97;;;;;;;10.85;65.43;98642.27;512590;1101;103531;-44
2021/05/25 20:13:07;;;;;;;82.13;40.87;;;;;;;10.84;65.71;98651.24;512624;1101;103157;-42
2021/05/25 20:23:15;;;;;;;33.55;16.10;;;;;;;10.66;66.22;98660.11;512653;1101;104580;-41
2021/05/25 20:33:30;;;;;;;36.77;18.37;;;;;;;10.50;66.42;98658.13;512539;1097;103270;-41
2021/05/25 20:43:34;;;;;;;18.67;10.47;;;;;;;10.61;66.66;98658.13;512640;1101;103525;-42
2021/05/25 20:53:38;;;;;;;24.43;8.70;;;;;;;10.32;66.30;98661.66;512725;1101;104587;-41
2021/05/25 21:03:42;;;;;;;15.60;7.60;;;;;;;10.22;66.23;98670.16;512527;1101;103291;-42
2021/05/25 21:13:47;;;;;;;20.30;8.27;;;;;;;10.09;66.63;98680.88;512501;1101;103148;-41
2021/05/25 21:23:51;;;;;;;21.40;9.13;;;;;;;9.71;67.17;98676.72;512684;1101;103662;-41
2021/05/25 21:33:57;;;;;;;16.70;7.30;;;;;;;9.71;67.78;98674.08;512506;1101;103170;-41
2021/05/25 21:44:01;;;;;;;14.70;5.13;;;;;;;9.82;67.77;98665.39;512575;1101;104532;-41
2021/05/25 21:54:05;;;;;;;9.47;4.30;;;;;;;10.04;67.88;98655.13;512464;1101;103564;-41
2021/05/25 22:04:11;;;;;;;12.67;5.77;;;;;;;9.96;67.70;98646.73;512593;1096;103528;-42
2021/05/25 22:14:15;;;;;;;11.27;4.67;;;;;;;9.52;67.75;98646.89;512704;1101;104960;-42
2021/05/25 22:24:20;;;;;;;13.23;5.90;;;;;;;9.48;67.87;98653.66;512557;1101;103572;-42
2021/05/25 22:34:24;;;;;;;8.87;3.40;;;;;;;9.63;67.88;98657.72;512611;1101;103250;-42
2021/05/25 22:44:30;;;;;;;6.20;3.80;;;;;;;9.63;67.90;98663.80;512547;1101;103283;-42
2021/05/25 22:54:34;;;;;;;7.00;3.13;;;;;;;9.59;67.97;98656.56;512682;1094;103554;-43
2021/05/25 23:04:38;;;;;;;8.07;4.43;;;;;;;9.02;67.67;98653.36;512686;1097;103224;-42
2021/05/25 23:14:42;;;;;;;10.87;4.20;;;;;;;8.69;68.09;98677.39;512640;1101;104751;-42
2021/05/25 23:24:50;;;;;;;10.00;4.13;;;;;;;8.40;67.54;98678.84;512570;1101;103173;-42
2021/05/25 23:34:55;;;;;;;7.37;2.73;;;;;;;8.34;68.44;98687.61;512577;1101;103219;-44
2021/05/25 23:44:59;;;;;;;5.10;2.83;;;;;;;8.36;68.60;98686.38;512668;1096;103486;-42
2021/05/25 23:55:09;;;;;;;5.23;3.00;;;;;;;8.45;68.85;98703.52;512607;1096;103199;-42
